Time;durP1;ratioP1;P1;durP2;ratioP2;P2;SDS_P1;SDS_P2;PMS_P1;PMS_P2;Temp;Humidity;BMP_temperature;BMP_pressure;BME280_temperature;BME280_humidity;BME280_pressure;Samples;Min_cycle;Max_cycle;Signal;HPM_P1;HPM_P2
2023/08/09 00:01:18;;;;;;;0.50;0.50;;;12.20;99.90;;;;;;5094106;28;20753;-89
2023/08/09 00:03:44;;;;;;;0.40;0.40;;;12.20;99.90;;;;;;5094323;28;20231;-90
2023/08/09 00:06:10;;;;;;;0.52;0.52;;;12.20;99.90;;;;;;5057325;28;20699;-91
2023/08/09 00:09:02;;;;;;;0.50;0.50;;;12.20;99.90;;;;;;5076205;28;20382;-91
2023/08/09 00:11:27;;;;;;;0.43;0.43;;;12.20;99.90;;;;;;5055785;28;20295;-85
2023/08/09 00:13:53;;;;;;;0.50;0.50;;;12.20;99.90;;;;;;5074448;28;20314;-91
2023/08/09 00:16:19;;;;;;;0.88;0.88;;;12.20;99.90;;;;;;5079497;28;20193;-90
2023/08/09 00:18:45;;;;;;;0.50;0.50;;;12.20;99.90;;;;;;5075244;28;20564;-86
2023/08/09 00:21:10;;;;;;;0.40;0.40;;;12.20;99.90;;;;;;5081195;28;20196;-89
2023/08/09 00:23:36;;;;;;;0.50;0.50;;;12.20;99.90;;;;;;5081197;28;20205;-89
2023/08/09 00:26:02;;;;;;;0.50;0.50;;;12.10;99.90;;;;;;5054395;28;20265;-80
2023/08/09 00:28:27;;;;;;;0.50;0.50;;;12.00;99.90;;;;;;5057219;28;20193;-79
2023/08/09 00:30:54;;;;;;;0.40;0.40;;;12.00;99.90;;;;;;5072172;28;20268;-79
2023/08/09 00:33:20;;;;;;;0.40;0.40;;;12.00;99.90;;;;;;5053612;28;20690;-80
2023/08/09 00:35:46;;;;;;;0.45;0.45;;;11.90;99.90;;;;;;5067481;28;20197;-80
2023/08/09 00:38:12;;;;;;;0.50;0.50;;;12.00;99.90;;;;;;5070371;28;20199;-78
2023/08/09 00:40:38;;;;;;;0.50;0.50;;;12.00;99.90;;;;;;5071499;28;20196;-80
2023/08/09 00:43:04;;;;;;;0.50;0.50;;;11.90;99.90;;;;;;5071654;28;20193;-80
2023/08/09 00:45:30;;;;;;;0.52;0.52;;;11.90;99.90;;;;;;5071403;28;20213;-80
2023/08/09 00:47:55;;;;;;;0.60;0.60;;;11.90;99.90;;;;;;5084327;28;20662;-80
2023/08/09 00:50:21;;;;;;;0.50;0.50;;;11.90;99.90;;;;;;5059115;28;20197;-80
2023/08/09 00:52:48;;;;;;;0.50;0.50;;;11.90;99.90;;;;;;5054206;28;20671;-79
2023/08/09 00:55:14;;;;;;;0.50;0.50;;;11.90;99.90;;;;;;5075428;28;20538;-79
2023/08/09 00:57:39;;;;;;;0.50;0.50;;;11.90;99.90;;;;;;5075152;28;20209;-80
2023/08/09 01:00:06;;;;;;;0.50;0.50;;;11.90;99.90;;;;;;5057413;28;20193;-80
2023/08/09 01:02:32;;;;;;;0.57;0.57;;;11.90;99.90;;;;;;5057878;22;20726;-67
2023/08/09 01:04:58;;;;;;;0.60;0.60;;;11.90;99.90;;;;;;5054702;28;20651;-67
2023/08/09 01:07:41;;;;;;;0.50;0.50;;;11.90;99.90;;;;;;5054654;28;20268;-68
2023/08/09 01:10:22;;;;;;;0.50;0.50;;;11.80;99.90;;;;;;5054926;28;20193;-68
2023/08/09 01:12:52;;;;;;;0.45;0.45;;;11.80;99.90;;;;;;5054950;28;20189;-68
2023/08/09 01:15:20;;;;;;;0.52;0.52;;;11.80;99.90;;;;;;5054754;28;20671;-68
2023/08/09 01:17:48;;;;;;;0.50;0.50;;;11.80;99.90;;;;;;5054732;28;20193;-68
2023/08/09 01:20:16;;;;;;;0.50;0.50;;;11.80;99.90;;;;;;5054868;28;20196;-68
2023/08/09 01:22:56;;;;;;;0.50;0.50;;;11.80;99.90;;;;;;5054637;28;20280;-68
2023/08/09 01:25:22;;;;;;;0.50;0.50;;;11.70;99.90;;;;;;5054693;28;20197;-68
2023/08/09 01:27:48;;;;;;;0.50;0.50;;;11.70;99.90;;;;;;5054764;28;20289;-68
2023/08/09 01:30:15;;;;;;;0.50;0.50;;;11.70;99.90;;;;;;5054736;28;20190;-68
2023/08/09 01:32:41;;;;;;;0.50;0.50;;;11.70;99.90;;;;;;5054498;28;20193;-68
2023/08/09 01:35:07;;;;;;;0.50;0.50;;;11.70;99.90;;;;;;5054499;28;20208;-68
2023/08/09 01:37:55;;;;;;;0.45;0.45;;;11.80;99.90;;;;;;5054484;28;20213;-69
2023/08/09 01:40:22;;;;;;;0.60;0.60;;;11.80;99.90;;;;;;5054295;28;20197;-68
2023/08/09 01:42:51;;;;;;;0.55;0.55;;;11.80;99.90;;;;;;5054570;28;20193;-68
2023/08/09 01:45:19;;;;;;;0.50;0.50;;;11.80;99.90;;;;;;5054056;28;20240;-68
2023/08/09 01:47:45;;;;;;;0.60;0.60;;;11.70;99.90;;;;;;5054478;28;20235;-68
2023/08/09 01:50:19;;;;;;;0.57;0.57;;;11.70;99.90;;;;;;5054310;28;20777;-68
2023/08/09 01:52:46;;;;;;;0.50;0.50;;;11.70;99.90;;;;;;5054357;28;20196;-68
2023/08/09 01:55:17;;;;;;;0.50;0.50;;;11.60;99.90;;;;;;5054673;28;20213;-68
2023/08/09 01:57:46;;;;;;;0.50;0.50;;;11.60;99.90;;;;;;5054231;28;20194;-68
2023/08/09 02:00:18;;;;;;;0.60;0.60;;;11.60;99.90;;;;;;5054132;28;20201;-67
2023/08/09 02:02:44;;;;;;;0.60;0.60;;;11.70;99.90;;;;;;5091862;28;20230;-67
2023/08/09 02:05:10;;;;;;;0.60;0.60;;;11.60;99.90;;;;;;5093906;28;20824;-67
2023/08/09 02:07:36;;;;;;;0.47;0.47;;;11.50;99.90;;;;;;5094114;28;20267;-67
2023/08/09 02:10:02;;;;;;;0.50;0.50;;;11.60;99.90;;;;;;5094280;28;20617;-68
2023/08/09 02:12:28;;;;;;;0.60;0.60;;;11.60;99.90;;;;;;5093314;28;20219;-72
2023/08/09 02:14:55;;;;;;;0.60;0.60;;;11.60;99.90;;;;;;5094304;28;20193;-71
2023/08/09 02:17:21;;;;;;;0.52;0.52;;;11.60;99.90;;;;;;5093367;28;20211;-71
2023/08/09 02:19:47;;;;;;;0.50;0.50;;;11.60;99.90;;;;;;5094164;28;20227;-72
2023/08/09 02:22:19;;;;;;;0.60;0.60;;;11.60;99.90;;;;;;5093827;28;20232;-71
2023/08/09 02:24:45;;;;;;;0.60;0.60;;;11.50;99.90;;;;;;5093980;28;20253;-72
2023/08/09 02:27:12;;;;;;;0.50;0.50;;;11.60;99.90;;;;;;5094029;28;20470;-72
2023/08/09 02:29:37;;;;;;;8.40;1.23;;;11.60;99.90;;;;;;5093878;28;20184;-71
2023/08/09 02:32:04;;;;;;;0.50;0.50;;;11.60;99.90;;;;;;5093026;28;20202;-71
2023/08/09 02:34:30;;;;;;;0.57;0.57;;;11.60;99.90;;;;;;5093446;28;20681;-72
2023/08/09 02:36:56;;;;;;;0.50;0.50;;;11.50;99.90;;;;;;5094463;28;20192;-72
2023/08/09 02:39:22;;;;;;;0.60;0.60;;;11.50;99.90;;;;;;5093326;28;20583;-72
2023/08/09 02:41:48;;;;;;;0.50;0.50;;;11.50;99.90;;;;;;5093189;28;20203;-73
2023/08/09 02:44:15;;;;;;;0.50;0.50;;;11.50;99.90;;;;;;5093309;28;20243;-72
2023/08/09 02:46:41;;;;;;;0.57;0.57;;;11.50;99.90;;;;;;5093835;28;20231;-72
2023/08/09 02:49:06;;;;;;;0.50;0.50;;;11.50;99.90;;;;;;5092466;28;20227;-71
2023/08/09 02:51:32;;;;;;;0.50;0.50;;;11.50;99.90;;;;;;5093244;28;20185;-71
2023/08/09 02:54:04;;;;;;;0.55;0.55;;;11.50;99.90;;;;;;5093572;28;20187;-71
2023/08/09 02:56:31;;;;;;;0.50;0.50;;;11.50;99.90;;;;;;5093468;28;20281;-70
2023/08/09 02:58:58;;;;;;;0.50;0.50;;;11.50;99.90;;;;;;5093603;28;20222;-71
2023/08/09 03:01:24;;;;;;;0.60;0.60;;;11.50;99.90;;;;;;5093312;28;20238;-72
2023/08/09 03:03:50;;;;;;;0.60;0.60;;;11.50;99.90;;;;;;5093351;28;20236;-71
2023/08/09 03:06:18;;;;;;;0.50;0.50;;;11.50;99.90;;;;;;5093563;28;20758;-71
2023/08/09 03:08:47;;;;;;;0.50;0.50;;;11.50;99.90;;;;;;5093787;28;20195;-71
2023/08/09 03:11:13;;;;;;;0.50;0.50;;;11.50;99.90;;;;;;5094180;28;20188;-71
2023/08/09 03:13:40;;;;;;;0.50;0.50;;;11.50;99.90;;;;;;5093776;28;20270;-71
2023/08/09 03:16:06;;;;;;;0.52;0.52;;;11.50;99.90;;;;;;5093444;28;20195;-72
2023/08/09 03:18:32;;;;;;;0.60;0.60;;;11.50;99.90;;;;;;5075294;28;20196;-72
2023/08/09 03:20:58;;;;;;;0.50;0.50;;;11.50;99.90;;;;;;5093586;28;20206;-72
2023/08/09 03:23:24;;;;;;;0.68;0.68;;;11.50;99.90;;;;;;5093917;28;20226;-68
2023/08/09 03:25:50;;;;;;;0.52;0.52;;;11.50;99.90;;;;;;5075296;28;20219;-67
2023/08/09 03:28:16;;;;;;;0.70;0.70;;;11.50;99.90;;;;;;5093467;28;20188;-67
2023/08/09 03:30:41;;;;;;;0.60;0.60;;;11.50;99.90;;;;;;5075006;28;20595;-67
2023/08/09 03:33:08;;;;;;;0.63;0.63;;;11.50;99.90;;;;;;5093171;28;20192;-68
2023/08/09 03:35:34;;;;;;;0.60;0.60;;;11.50;99.90;;;;;;5093013;28;20192;-67
2023/08/09 03:38:00;;;;;;;0.60;0.60;;;11.50;99.90;;;;;;5091438;28;20196;-67
2023/08/09 03:40:25;;;;;;;0.50;0.50;;;11.50;99.90;;;;;;5093111;28;20283;-67
2023/08/09 03:42:51;;;;;;;0.60;0.60;;;11.50;99.90;;;;;;5093228;28;20242;-67
2023/08/09 03:45:17;;;;;;;0.50;0.50;;;11.40;99.90;;;;;;5093609;28;20212;-67
2023/08/09 03:47:43;;;;;;;0.50;0.50;;;11.50;99.90;;;;;;5092804;28;20222;-67
2023/08/09 03:50:10;;;;;;;0.50;0.50;;;11.50;99.90;;;;;;5092957;28;20188;-67
2023/08/09 03:52:36;;;;;;;0.50;0.50;;;11.50;99.90;;;;;;5093024;28;20192;-67
2023/08/09 03:55:03;;;;;;;0.50;0.50;;;11.40;99.90;;;;;;5093118;28;20207;-67
2023/08/09 03:57:29;;;;;;;0.50;0.50;;;11.40;99.90;;;;;;5092803;28;20199;-67
2023/08/09 03:59:54;;;;;;;0.50;0.50;;;11.40;99.90;;;;;;5092993;28;20564;-67
2023/08/09 04:02:21;;;;;;;0.50;0.50;;;11.40;99.90;;;;;;5092789;28;20307;-67
2023/08/09 04:04:47;;;;;;;0.55;0.55;;;11.40;99.90;;;;;;5093080;28;20210;-68
2023/08/09 04:07:13;;;;;;;0.40;0.40;;;11.40;99.90;;;;;;5093159;28;20188;-67
2023/08/09 04:09:39;;;;;;;0.60;0.60;;;11.40;99.90;;;;;;5093323;28;20196;-67
2023/08/09 04:12:05;;;;;;;0.50;0.50;;;11.40;99.90;;;;;;5092936;28;20610;-67
2023/08/09 04:14:31;;;;;;;0.60;0.60;;;11.30;99.90;;;;;;5092787;28;20570;-68
2023/08/09 04:16:57;;;;;;;0.50;0.50;;;11.30;99.90;;;;;;5092162;28;20192;-68
2023/08/09 04:19:24;;;;;;;0.50;0.50;;;11.30;99.90;;;;;;5092925;28;20198;-67
2023/08/09 04:21:51;;;;;;;0.52;0.52;;;11.30;99.90;;;;;;5092998;28;20200;-67
2023/08/09 04:24:18;;;;;;;0.60;0.60;;;11.30;99.90;;;;;;5092537;28;20200;-67
2023/08/09 04:26:44;;;;;;;0.52;0.52;;;11.30;99.90;;;;;;5092642;28;20223;-67
2023/08/09 04:29:09;;;;;;;0.50;0.50;;;11.30;99.90;;;;;;5095811;28;20573;-69
2023/08/09 04:31:35;;;;;;;0.50;0.50;;;11.30;99.90;;;;;;5096230;28;20218;-70
2023/08/09 04:34:02;;;;;;;0.50;0.50;;;11.30;99.90;;;;;;5096499;28;20188;-67
2023/08/09 04:36:31;;;;;;;0.50;0.50;;;11.30;99.90;;;;;;5096020;28;20188;-67
2023/08/09 04:38:59;;;;;;;0.60;0.60;;;11.30;99.90;;;;;;5095523;28;20203;-68
2023/08/09 04:41:25;;;;;;;0.47;0.47;;;11.30;99.90;;;;;;5096335;28;20203;-68
2023/08/09 04:43:51;;;;;;;0.50;0.50;;;11.40;99.90;;;;;;5096432;28;20200;-68
2023/08/09 04:46:17;;;;;;;0.40;0.40;;;11.40;99.90;;;;;;5096212;28;20188;-67
2023/08/09 04:48:43;;;;;;;0.60;0.60;;;11.40;99.90;;;;;;5095941;28;20192;-68
2023/08/09 04:51:09;;;;;;;0.50;0.50;;;11.30;99.90;;;;;;5096427;28;20185;-67
2023/08/09 04:53:36;;;;;;;0.52;0.52;;;11.30;99.90;;;;;;5095390;28;20238;-68
2023/08/09 04:56:03;;;;;;;0.50;0.50;;;11.40;99.90;;;;;;5078169;28;20200;-67
2023/08/09 04:58:30;;;;;;;0.60;0.60;;;11.40;99.90;;;;;;5096197;28;20188;-67
2023/08/09 05:00:58;;;;;;;0.50;0.50;;;11.40;99.90;;;;;;5096416;28;20220;-67
2023/08/09 05:03:23;;;;;;;0.60;0.60;;;11.30;99.90;;;;;;5095848;28;20666;-67
2023/08/09 05:05:49;;;;;;;0.50;0.50;;;11.30;99.90;;;;;;5096144;28;20219;-67
2023/08/09 05:08:15;;;;;;;1.30;0.88;;;11.30;99.90;;;;;;5093533;28;20196;-67
2023/08/09 05:10:41;;;;;;;0.60;0.60;;;11.30;99.90;;;;;;5078089;28;20207;-67
2023/08/09 05:13:06;;;;;;;0.50;0.50;;;11.30;99.90;;;;;;5095964;28;20192;-67
2023/08/09 05:15:32;;;;;;;6.28;3.22;;;11.30;99.90;;;;;;5095986;28;20536;-68
2023/08/09 05:17:58;;;;;;;0.60;0.60;;;11.40;99.90;;;;;;5096107;28;20196;-67
2023/08/09 05:20:24;;;;;;;1.77;1.08;;;11.40;99.90;;;;;;5095557;28;20200;-67
2023/08/09 05:22:51;;;;;;;0.50;0.50;;;11.40;99.90;;;;;;5077956;28;20200;-67
2023/08/09 05:25:17;;;;;;;0.50;0.50;;;11.50;99.90;;;;;;5095942;28;20697;-67
2023/08/09 05:27:48;;;;;;;0.65;0.65;;;11.50;99.90;;;;;;5095568;28;20654;-67
2023/08/09 05:30:19;;;;;;;0.50;0.50;;;11.50;99.90;;;;;;5095690;28;20184;-67
2023/08/09 05:32:45;;;;;;;0.60;0.60;;;11.50;99.90;;;;;;5096038;28;20556;-67
2023/08/09 05:35:11;;;;;;;0.55;0.55;;;11.50;99.90;;;;;;5094681;28;20776;-67
2023/08/09 05:37:37;;;;;;;0.50;0.50;;;11.50;99.90;;;;;;5095659;28;20279;-67
2023/08/09 05:40:05;;;;;;;0.50;0.50;;;11.50;99.90;;;;;;5095082;28;20674;-67
2023/08/09 05:42:31;;;;;;;0.75;0.75;;;11.60;99.90;;;;;;5095297;28;20685;-67
2023/08/09 05:44:59;;;;;;;0.50;0.50;;;11.70;99.90;;;;;;5095410;28;20208;-67
2023/08/09 05:47:24;;;;;;;0.50;0.50;;;11.70;99.90;;;;;;5094640;28;20670;-68
2023/08/09 05:49:50;;;;;;;0.50;0.50;;;11.80;99.90;;;;;;5094925;28;20192;-67
2023/08/09 05:52:16;;;;;;;0.68;0.68;;;11.80;99.90;;;;;;5095194;28;20192;-67
2023/08/09 05:54:42;;;;;;;0.50;0.50;;;11.70;99.90;;;;;;5077262;28;20196;-67
2023/08/09 05:57:08;;;;;;;0.50;0.50;;;11.70;99.90;;;;;;5095405;28;20196;-67
2023/08/09 05:59:34;;;;;;;0.70;0.70;;;11.70;99.90;;;;;;5095368;28;20192;-67
2023/08/09 06:02:01;;;;;;;0.60;0.60;;;11.80;99.90;;;;;;5095138;28;20255;-67
2023/08/09 06:04:27;;;;;;;0.60;0.60;;;11.80;99.90;;;;;;5095326;28;20635;-69
2023/08/09 06:06:53;;;;;;;0.50;0.50;;;11.80;99.90;;;;;;5095700;28;20263;-70
2023/08/09 06:09:18;;;;;;;0.77;0.77;;;11.80;99.90;;;;;;5095011;28;20200;-70
2023/08/09 06:11:44;;;;;;;0.50;0.50;;;11.90;99.90;;;;;;5094784;28;20227;-70
2023/08/09 06:14:10;;;;;;;0.60;0.60;;;11.90;99.90;;;;;;5076474;28;20244;-70
2023/08/09 06:16:35;;;;;;;0.50;0.50;;;11.90;99.90;;;;;;5095041;28;20204;-70
2023/08/09 06:19:02;;;;;;;0.50;0.50;;;11.90;99.90;;;;;;5095010;28;20188;-70
2023/08/09 06:21:27;;;;;;;0.63;0.63;;;12.00;99.90;;;;;;5094288;28;20614;-70
2023/08/09 06:23:53;;;;;;;0.50;0.50;;;12.00;99.90;;;;;;5094442;28;20204;-70
2023/08/09 06:26:19;;;;;;;0.40;0.40;;;12.00;99.90;;;;;;5094710;28;20192;-70
2023/08/09 06:28:44;;;;;;;0.50;0.50;;;12.10;99.90;;;;;;5094325;28;20196;-70
2023/08/09 06:31:10;;;;;;;0.60;0.60;;;12.00;99.90;;;;;;5094755;28;20191;-71
2023/08/09 06:33:42;;;;;;;0.50;0.50;;;12.10;99.90;;;;;;5094502;28;20188;-69
2023/08/09 06:36:09;;;;;;;0.60;0.60;;;12.10;99.90;;;;;;5074245;28;20217;-70
2023/08/09 06:38:35;;;;;;;0.50;0.50;;;12.00;99.90;;;;;;5074322;28;20674;-71
2023/08/09 06:41:01;;;;;;;0.50;0.50;;;11.90;99.90;;;;;;5074323;28;20222;-73
2023/08/09 06:43:28;;;;;;;0.50;0.50;;;12.00;99.90;;;;;;5074092;28;20196;-69
2023/08/09 06:45:53;;;;;;;0.50;0.50;;;12.00;99.90;;;;;;5073169;28;20565;-70
2023/08/09 06:48:19;;;;;;;0.57;0.57;;;11.90;99.90;;;;;;5073847;28;20193;-70
2023/08/09 06:50:45;;;;;;;0.50;0.50;;;11.80;99.90;;;;;;5071747;28;20226;-70
2023/08/09 06:53:11;;;;;;;0.50;0.50;;;11.80;99.90;;;;;;5073260;28;20185;-68
2023/08/09 06:55:37;;;;;;;0.50;0.50;;;11.80;99.90;;;;;;5074025;28;20281;-68
2023/08/09 06:58:03;;;;;;;0.60;0.60;;;11.80;99.90;;;;;;5074318;28;20599;-68
2023/08/09 07:00:29;;;;;;;0.50;0.50;;;11.80;99.90;;;;;;5074068;28;20682;-69
2023/08/09 07:02:54;;;;;;;0.50;0.50;;;11.90;99.90;;;;;;5073635;28;20196;-68
2023/08/09 07:05:21;;;;;;;0.50;0.50;;;11.90;99.90;;;;;;5075331;28;20266;-70
2023/08/09 07:07:51;;;;;;;0.50;0.50;;;12.00;99.90;;;;;;5093597;28;20208;-68
2023/08/09 07:10:18;;;;;;;1.67;1.15;;;12.20;99.90;;;;;;5092758;28;20202;-68
2023/08/09 07:12:44;;;;;;;0.55;0.55;;;12.20;99.90;;;;;;5093859;28;20192;-68
2023/08/09 07:15:11;;;;;;;0.50;0.50;;;12.20;99.90;;;;;;5094660;28;20196;-69
2023/08/09 07:17:38;;;;;;;0.50;0.50;;;12.20;99.90;;;;;;5094161;28;20202;-69
2023/08/09 07:20:14;;;;;;;0.50;0.50;;;12.10;99.90;;;;;;5093991;28;20200;-68
2023/08/09 07:22:42;;;;;;;0.50;0.50;;;12.20;99.90;;;;;;5077321;28;20671;-68
2023/08/09 07:25:09;;;;;;;0.50;0.50;;;12.30;99.90;;;;;;5093594;28;20248;-68
2023/08/09 07:27:45;;;;;;;0.50;0.50;;;12.40;99.90;;;;;;5093012;28;20207;-68
2023/08/09 07:30:14;;;;;;;0.50;0.50;;;12.40;99.90;;;;;;5093436;28;20265;-68
2023/08/09 07:32:40;;;;;;;0.50;0.50;;;12.30;99.90;;;;;;5074910;28;20686;-69
2023/08/09 07:35:07;;;;;;;0.57;0.57;;;12.20;99.90;;;;;;5093129;28;20199;-68
2023/08/09 07:37:35;;;;;;;0.60;0.60;;;12.30;99.90;;;;;;5093161;28;20199;-68
2023/08/09 07:40:03;;;;;;;0.50;0.50;;;12.30;99.90;;;;;;5092888;28;20615;-68
2023/08/09 07:42:29;;;;;;;0.50;0.50;;;12.30;99.90;;;;;;5092861;28;20560;-68
2023/08/09 07:44:55;;;;;;;0.50;0.50;;;12.30;99.90;;;;;;5093389;28;20626;-69
2023/08/09 07:47:21;;;;;;;0.50;0.50;;;12.30;99.90;;;;;;5093144;28;20212;-68
2023/08/09 07:49:46;;;;;;;0.50;0.50;;;12.20;99.90;;;;;;5093315;28;20241;-68
2023/08/09 07:52:12;;;;;;;0.50;0.50;;;12.20;99.90;;;;;;5093364;28;20195;-68
2023/08/09 07:54:38;;;;;;;1.00;0.90;;;12.30;99.90;;;;;;5093063;28;20223;-68
2023/08/09 07:57:04;;;;;;;0.50;0.50;;;12.30;99.90;;;;;;5093323;28;20275;-68
2023/08/09 07:59:29;;;;;;;0.50;0.50;;;12.30;99.90;;;;;;5093155;28;20271;-68
2023/08/09 08:01:55;;;;;;;0.50;0.50;;;12.30;99.90;;;;;;5092556;28;20319;-67
2023/08/09 08:04:21;;;;;;;0.50;0.50;;;12.40;99.90;;;;;;5075164;28;20243;-68
2023/08/09 08:06:48;;;;;;;0.60;0.60;;;12.40;99.90;;;;;;5093001;28;20195;-68
2023/08/09 08:09:14;;;;;;;0.50;0.50;;;12.40;99.90;;;;;;5093258;28;20690;-68
2023/08/09 08:11:41;;;;;;;0.50;0.50;;;12.40;99.90;;;;;;5092914;28;20199;-68
2023/08/09 08:14:08;;;;;;;0.50;0.50;;;12.30;99.90;;;;;;5074688;28;20304;-68
2023/08/09 08:16:34;;;;;;;0.50;0.50;;;12.30;99.90;;;;;;5074335;28;20299;-68
2023/08/09 08:19:00;;;;;;;0.43;0.43;;;12.40;99.90;;;;;;5092598;28;20218;-68
2023/08/09 08:21:25;;;;;;;0.60;0.60;;;12.50;99.90;;;;;;5092594;28;20225;-68
2023/08/09 08:23:52;;;;;;;0.50;0.50;;;12.50;99.90;;;;;;5093417;28;20207;-70
2023/08/09 08:26:19;;;;;;;0.50;0.50;;;12.60;99.90;;;;;;5092932;28;20639;-70
2023/08/09 08:28:46;;;;;;;0.50;0.50;;;12.70;99.90;;;;;;5092575;28;20196;-70
2023/08/09 08:31:12;;;;;;;0.50;0.50;;;12.70;99.90;;;;;;5092886;28;20196;-70
2023/08/09 08:33:44;;;;;;;0.50;0.50;;;12.80;99.90;;;;;;5092658;28;20618;-70
2023/08/09 08:36:10;;;;;;;0.50;0.50;;;12.80;99.90;;;;;;5072521;28;20605;-70
2023/08/09 08:38:36;;;;;;;0.50;0.50;;;12.90;99.90;;;;;;5072406;28;20220;-70
2023/08/09 08:41:01;;;;;;;0.50;0.50;;;13.00;99.90;;;;;;5072959;28;20267;-70
2023/08/09 08:43:27;;;;;;;0.40;0.40;;;13.00;99.90;;;;;;5072374;28;20655;-70
2023/08/09 08:45:54;;;;;;;0.50;0.50;;;13.10;99.90;;;;;;5072016;28;20644;-70
2023/08/09 08:48:21;;;;;;;0.50;0.50;;;13.10;99.90;;;;;;5072419;28;20242;-70
2023/08/09 08:50:48;;;;;;;0.40;0.40;;;13.10;99.90;;;;;;5054682;28;20204;-70
2023/08/09 08:53:14;;;;;;;0.43;0.43;;;13.00;99.90;;;;;;5072225;28;20189;-70
2023/08/09 08:55:41;;;;;;;0.45;0.45;;;12.80;99.90;;;;;;5071868;28;20196;-69
2023/08/09 08:58:08;;;;;;;0.43;0.43;;;12.80;99.90;;;;;;5076767;28;20197;-69
2023/08/09 09:00:36;;;;;;;0.50;0.50;;;12.60;99.90;;;;;;5091328;28;20200;-70
2023/08/09 09:03:01;;;;;;;0.60;0.60;;;12.60;99.90;;;;;;5073090;28;20204;-70
2023/08/09 09:05:27;;;;;;;0.50;0.50;;;12.70;99.90;;;;;;5092006;28;20219;-70
2023/08/09 09:07:56;;;;;;;0.50;0.50;;;12.70;99.90;;;;;;5092333;28;20191;-69
2023/08/09 09:10:22;;;;;;;0.50;0.50;;;12.80;99.90;;;;;;5092082;28;20667;-69
2023/08/09 09:12:57;;;;;;;0.50;0.50;;;12.90;99.90;;;;;;5092159;28;20241;-70
2023/08/09 09:15:26;;;;;;;0.50;0.50;;;12.80;99.90;;;;;;5094562;28;20685;-68
2023/08/09 09:17:53;;;;;;;0.50;0.50;;;12.90;99.90;;;;;;5095467;28;20196;-68
2023/08/09 09:20:24;;;;;;;0.50;0.50;;;12.70;99.90;;;;;;5095945;28;20260;-68
2023/08/09 09:22:51;;;;;;;0.45;0.45;;;12.80;99.90;;;;;;5095714;28;20191;-68
2023/08/09 09:25:17;;;;;;;0.52;0.52;;;12.80;99.90;;;;;;5095651;28;20208;-68
2023/08/09 09:27:47;;;;;;;0.50;0.50;;;12.70;99.90;;;;;;5095330;28;20286;-68
2023/08/09 09:30:13;;;;;;;0.57;0.57;;;12.70;99.90;;;;;;5095929;28;20188;-68
2023/08/09 09:32:51;;;;;;;0.50;0.50;;;12.70;99.90;;;;;;5095565;28;20287;-67
2023/08/09 09:35:21;;;;;;;0.50;0.50;;;12.70;99.90;;;;;;5096138;28;20204;-70
2023/08/09 09:37:54;;;;;;;0.50;0.50;;;12.70;99.90;;;;;;5095514;28;20203;-70
2023/08/09 09:40:28;;;;;;;0.50;0.50;;;12.60;99.90;;;;;;5095529;28;20188;-70
2023/08/09 09:42:55;;;;;;;0.50;0.50;;;12.60;99.90;;;;;;5095458;28;20222;-70
2023/08/09 09:45:30;;;;;;;0.50;0.50;;;12.70;99.90;;;;;;5095134;28;20212;-71
2023/08/09 09:47:58;;;;;;;0.50;0.50;;;12.60;99.90;;;;;;5095177;28;20282;-71
2023/08/09 09:50:27;;;;;;;0.50;0.50;;;12.70;99.90;;;;;;5095064;28;20199;-71
2023/08/09 09:52:54;;;;;;;0.50;0.50;;;12.70;99.90;;;;;;5093992;28;20727;-70
2023/08/09 09:55:25;;;;;;;0.50;0.50;;;12.70;99.90;;;;;;5095073;28;20255;-71
2023/08/09 09:57:52;;;;;;;0.40;0.40;;;12.80;99.90;;;;;;5077484;28;20200;-71
2023/08/09 10:00:22;;;;;;;0.50;0.50;;;12.80;99.90;;;;;;5094778;28;20196;-71
2023/08/09 10:02:52;;;;;;;0.50;0.50;;;12.90;99.90;;;;;;5094853;28;20224;-70
2023/08/09 10:05:21;;;;;;;0.47;0.47;;;13.00;99.90;;;;;;5095147;28;20215;-71
2023/08/09 10:07:48;;;;;;;0.50;0.50;;;13.00;99.90;;;;;;5094781;28;20673;-71
2023/08/09 10:10:16;;;;;;;1.83;1.05;;;13.10;99.90;;;;;;5095129;28;20259;-71
2023/08/09 10:12:55;;;;;;;0.40;0.40;;;13.10;99.90;;;;;;5095287;28;20195;-70
2023/08/09 10:15:27;;;;;;;0.40;0.40;;;13.10;99.90;;;;;;5095082;28;20199;-70
2023/08/09 10:17:58;;;;;;;0.50;0.50;;;13.10;99.90;;;;;;5095095;28;20188;-70
2023/08/09 10:20:25;;;;;;;0.70;0.70;;;13.30;99.90;;;;;;5094648;28;20204;-71
2023/08/09 10:22:57;;;;;;;0.50;0.50;;;13.40;99.90;;;;;;5094359;28;20735;-70
2023/08/09 10:25:45;;;;;;;0.30;0.30;;;13.40;99.90;;;;;;5076653;28;20211;-71
2023/08/09 10:28:11;;;;;;;0.65;0.65;;;13.50;99.90;;;;;;5094496;28;20192;-71
2023/08/09 10:30:52;;;;;;;0.50;0.50;;;13.50;99.90;;;;;;5093213;28;20192;-70
2023/08/09 10:33:19;;;;;;;0.60;0.60;;;13.60;99.90;;;;;;5093156;28;20245;-71
2023/08/09 10:35:52;;;;;;;0.40;0.40;;;13.70;99.90;;;;;;5094479;28;20196;-70
2023/08/09 10:38:41;;;;;;;0.43;0.43;;;13.70;99.90;;;;;;5094916;28;20200;-70
2023/08/09 10:41:09;;;;;;;0.40;0.40;;;13.80;99.90;;;;;;5094412;28;20200;-70
2023/08/09 10:43:35;;;;;;;0.40;0.40;;;13.90;99.90;;;;;;5094201;28;20283;-70
2023/08/09 10:46:23;;;;;;;0.40;0.40;;;13.80;99.90;;;;;;5094372;28;20279;-68
2023/08/09 10:48:50;;;;;;;0.50;0.50;;;13.80;99.90;;;;;;5094064;28;20202;-68
2023/08/09 10:51:19;;;;;;;0.40;0.40;;;13.70;99.90;;;;;;5093510;28;20192;-67
2023/08/09 10:53:55;;;;;;;0.43;0.43;;;13.60;99.90;;;;;;5093944;28;20216;-68
2023/08/09 10:56:43;;;;;;;0.50;0.50;;;13.40;99.90;;;;;;5093726;28;20188;-67
2023/08/09 10:59:24;;;;;;;0.60;0.60;;;13.00;99.90;;;;;;5094012;28;20215;-68
2023/08/09 11:01:51;;;;;;;0.50;0.50;;;13.00;99.90;;;;;;5094187;28;20234;-67
2023/08/09 11:04:17;;;;;;;0.40;0.40;;;12.90;99.90;;;;;;5093737;28;20228;-68
2023/08/09 11:06:48;;;;;;;0.50;0.50;;;13.00;99.90;;;;;;5093782;28;20619;-69
2023/08/09 11:09:18;;;;;;;0.50;0.50;;;13.00;99.90;;;;;;5093762;28;20196;-69
2023/08/09 11:11:46;;;;;;;0.50;0.50;;;12.90;99.90;;;;;;5093905;28;20283;-68
2023/08/09 11:14:15;;;;;;;0.50;0.50;;;12.90;99.90;;;;;;5093851;28;20200;-68
2023/08/09 11:16:41;;;;;;;0.50;0.50;;;12.90;99.90;;;;;;5093623;28;20653;-68
2023/08/09 11:19:14;;;;;;;0.60;0.60;;;12.90;99.90;;;;;;5093555;28;20535;-68
2023/08/09 11:21:52;;;;;;;0.50;0.50;;;12.80;99.90;;;;;;5075095;28;20291;-68
2023/08/09 11:24:20;;;;;;;0.50;0.50;;;12.80;99.90;;;;;;5094059;28;20287;-68
2023/08/09 11:26:56;;;;;;;0.47;0.47;;;12.80;99.90;;;;;;5093458;28;20556;-68
2023/08/09 11:29:25;;;;;;;0.45;0.45;;;12.80;99.90;;;;;;5093218;28;20192;-68
2023/08/09 11:31:53;;;;;;;0.50;0.50;;;12.80;99.90;;;;;;5093729;28;20191;-68
2023/08/09 11:34:22;;;;;;;0.40;0.40;;;12.70;99.90;;;;;;5093182;28;20196;-68
2023/08/09 11:36:50;;;;;;;0.50;0.50;;;12.70;99.90;;;;;;5092990;28;20619;-68
2023/08/09 11:39:17;;;;;;;0.47;0.47;;;12.90;99.90;;;;;;5093450;28;20216;-68
2023/08/09 11:41:54;;;;;;;0.40;0.40;;;13.00;99.90;;;;;;5091357;28;20200;-69
2023/08/09 11:44:30;;;;;;;0.50;0.50;;;13.10;99.90;;;;;;5092302;28;20227;-70
2023/08/09 11:46:57;;;;;;;0.40;0.40;;;13.20;99.90;;;;;;5092868;28;20188;-69
2023/08/09 11:49:30;;;;;;;0.50;0.50;;;13.40;99.90;;;;;;5092941;28;20270;-68
2023/08/09 11:51:56;;;;;;;0.40;0.40;;;13.60;99.90;;;;;;5093363;28;20689;-68
2023/08/09 11:54:22;;;;;;;0.50;0.50;;;13.60;99.90;;;;;;5093115;28;20200;-70
2023/08/09 11:56:48;;;;;;;0.50;0.50;;;13.60;99.90;;;;;;5075048;28;20248;-70
2023/08/09 11:59:19;;;;;;;0.45;0.45;;;13.50;99.90;;;;;;5093454;28;20223;-71
2023/08/09 12:01:48;;;;;;;0.40;0.40;;;13.60;99.90;;;;;;5092925;28;20771;-70
2023/08/09 12:04:19;;;;;;;0.50;0.50;;;13.50;99.90;;;;;;5092966;28;20198;-71
2023/08/09 12:06:56;;;;;;;0.50;0.50;;;13.50;99.90;;;;;;5093118;28;20279;-71
2023/08/09 12:09:31;;;;;;;0.40;0.40;;;13.40;99.90;;;;;;5074818;28;20309;-70
2023/08/09 12:12:02;;;;;;;0.57;0.57;;;13.40;99.90;;;;;;5093068;28;20207;-70
2023/08/09 12:14:28;;;;;;;0.40;0.40;;;13.40;99.90;;;;;;5092850;28;20192;-71
2023/08/09 12:16:54;;;;;;;0.60;0.60;;;13.30;99.90;;;;;;5092920;28;20196;-71
2023/08/09 12:19:20;;;;;;;0.40;0.40;;;13.20;99.90;;;;;;5093006;28;20192;-70
2023/08/09 12:21:46;;;;;;;0.40;0.40;;;13.30;99.90;;;;;;5092903;28;20607;-70
2023/08/09 12:24:13;;;;;;;0.40;0.40;;;13.40;99.90;;;;;;5093001;28;20678;-70
2023/08/09 12:26:38;;;;;;;0.40;0.40;;;13.50;99.90;;;;;;5092464;28;20631;-70
2023/08/09 12:29:04;;;;;;;0.50;0.50;;;13.70;99.90;;;;;;5092376;28;20190;-71
2023/08/09 12:31:30;;;;;;;0.47;0.47;;;13.60;99.90;;;;;;5092480;28;20192;-71
2023/08/09 12:33:56;;;;;;;0.40;0.40;;;13.80;99.90;;;;;;5092697;28;20267;-70
2023/08/09 12:36:22;;;;;;;0.40;0.40;;;13.80;99.90;;;;;;5092433;28;20697;-70
2023/08/09 12:38:48;;;;;;;0.40;0.40;;;13.90;99.90;;;;;;5092056;28;20191;-70
2023/08/09 12:41:14;;;;;;;0.35;0.35;;;14.00;99.90;;;;;;5092822;28;20195;-70
2023/08/09 12:43:40;;;;;;;0.47;0.47;;;13.90;99.90;;;;;;5092520;28;20192;-72
2023/08/09 12:46:06;;;;;;;0.40;0.40;;;13.80;99.90;;;;;;5092636;28;20192;-68
2023/08/09 12:48:31;;;;;;;0.40;0.40;;;13.70;99.90;;;;;;5092462;28;20192;-69
2023/08/09 12:50:57;;;;;;;0.50;0.50;;;13.70;99.90;;;;;;5096891;28;20195;-70